createdAt,value
2022-09-10T00:02:39.234Z,73.47
2022-09-10T00:05:43.019Z,73.86
2022-09-10T00:08:46.423Z,75.32
2022-09-10T00:11:49.137Z,75.37
2022-09-10T00:14:52.387Z,75.86
2022-09-10T00:17:54.667Z,76.21
2022-09-10T00:20:58.163Z,76.50
2022-09-10T00:24:01.426Z,76.87
2022-09-10T00:27:03.526Z,76.63
2022-09-10T00:30:06.511Z,76.71
2022-09-10T00:33:08.975Z,77.02
2022-09-10T00:36:19.419Z,77.04
2022-09-10T00:39:21.446Z,76.62
2022-09-10T00:42:25.969Z,76.26
2022-09-10T00:45:29.807Z,76.46
2022-09-10T00:48:32.363Z,77.12
2022-09-10T00:51:35.738Z,76.93
2022-09-10T00:54:39.381Z,77.29
2022-09-10T00:57:42.235Z,77.75
2022-09-10T01:00:44.573Z,78.10
2022-09-10T01:03:46.770Z,77.71
2022-09-10T01:06:51.993Z,78.18
2022-09-10T01:09:54.059Z,78.31
2022-09-10T01:12:59.398Z,78.78
2022-09-10T01:16:04.678Z,78.92
2022-09-10T01:19:07.408Z,78.14
2022-09-10T01:22:28.403Z,78.64
2022-09-10T01:25:43.754Z,78.74
2022-09-10T01:29:05.524Z,78.52
2022-09-10T01:32:15.494Z,78.53
2022-09-10T01:35:19.509Z,78.06
2022-09-10T01:38:32.634Z,77.90
2022-09-10T01:41:35.568Z,77.95
2022-09-10T01:44:47.997Z,77.40
2022-09-10T01:47:56.281Z,76.61
2022-09-10T01:51:21.762Z,75.47
2022-09-10T01:54:43.432Z,74.43
2022-09-10T01:57:50.688Z,73.04
2022-09-10T02:00:58.924Z,72.79
2022-09-10T02:04:06.643Z,72.53
2022-09-10T02:07:10.380Z,72.29
2022-09-10T02:10:12.715Z,72.24
2022-09-10T02:13:15.197Z,72.36
2022-09-10T02:16:22.451Z,72.74
2022-09-10T02:19:27.950Z,73.06
2022-09-10T02:22:32.899Z,73.09
2022-09-10T02:25:35.131Z,72.69
2022-09-10T02:28:38.488Z,72.41
2022-09-10T02:31:41.218Z,72.40
2022-09-10T02:34:43.701Z,72.07
2022-09-10T02:37:45.791Z,71.88
2022-09-10T02:40:51.668Z,71.17
2022-09-10T02:43:54.242Z,70.45
2022-09-10T02:46:56.544Z,69.79
2022-09-10T02:49:58.587Z,69.78
2022-09-10T02:53:03.862Z,69.37
2022-09-10T02:56:06.235Z,69.29
2022-09-10T02:59:08.754Z,69.30
2022-09-10T03:02:11.035Z,69.08
2022-09-10T03:05:14.072Z,68.39
2022-09-10T03:08:16.144Z,67.99
2022-09-10T03:11:18.854Z,67.91
2022-09-10T03:14:23.212Z,67.35
2022-09-10T03:17:25.959Z,67.16
2022-09-10T03:20:28.042Z,66.88
2022-09-10T03:23:30.305Z,66.74
2022-09-10T03:26:32.432Z,66.76
2022-09-10T03:29:34.724Z,66.63
2022-09-10T03:32:37.264Z,66.45
2022-09-10T03:35:40.108Z,66.25
2022-09-10T03:38:42.161Z,66.08
2022-09-10T03:41:45.474Z,66.24
2022-09-10T03:44:48.860Z,66.38
2022-09-10T03:47:52.001Z,66.30
2022-09-10T03:50:54.769Z,66.22
2022-09-10T03:53:59.685Z,65.99
2022-09-10T03:57:03.379Z,65.87
2022-09-10T04:00:07.336Z,65.73
2022-09-10T04:03:16.883Z,65.72
2022-09-10T04:06:19.318Z,65.73
2022-09-10T04:09:21.463Z,65.36
2022-09-10T04:12:24.398Z,65.20
2022-09-10T04:15:26.549Z,64.94
2022-09-10T04:18:29.117Z,64.81
2022-09-10T04:21:31.624Z,64.83
2022-09-10T04:24:34.123Z,64.68
2022-09-10T04:27:36.348Z,64.68
2022-09-10T04:30:40.251Z,64.37
2022-09-10T04:33:42.467Z,64.31
2022-09-10T04:36:44.781Z,64.28
2022-09-10T04:39:47.715Z,64.38
2022-09-10T04:42:50.131Z,64.38
2022-09-10T04:45:55.401Z,64.42
2022-09-10T04:48:58.431Z,64.33
2022-09-10T04:52:01.509Z,64.38
2022-09-10T04:55:04.292Z,64.34
2022-09-10T04:58:06.407Z,64.54
2022-09-10T05:01:09.240Z,64.77
2022-09-10T05:04:12.396Z,64.71
2022-09-10T05:07:15.341Z,64.59
2022-09-10T05:10:18.219Z,64.70
2022-09-10T05:13:21.218Z,64.84
2022-09-10T05:16:23.640Z,64.66
2022-09-10T05:19:26.522Z,64.42
2022-09-10T05:22:36.084Z,64.05
2022-09-10T05:25:43.394Z,63.96
2022-09-10T05:28:45.797Z,63.99
2022-09-10T05:31:49.194Z,63.73
2022-09-10T05:34:51.351Z,63.72
2022-09-10T05:37:53.736Z,63.28
2022-09-10T05:40:57.201Z,62.99
2022-09-10T05:43:59.964Z,62.65
2022-09-10T05:47:02.108Z,62.52
2022-09-10T05:50:04.759Z,62.28
2022-09-10T05:53:06.766Z,62.12
2022-09-10T05:56:09.277Z,61.29
2022-09-10T05:59:11.568Z,61.27
2022-09-10T06:02:23.766Z,61.19
2022-09-10T06:05:26.954Z,61.21
2022-09-10T06:08:29.235Z,60.57
2022-09-10T06:11:31.815Z,60.59
2022-09-10T06:14:34.368Z,60.67
2022-09-10T06:17:38.447Z,60.74
2022-09-10T06:20:40.758Z,60.26
2022-09-10T06:23:43.764Z,60.51
2022-09-10T06:26:50.079Z,61.16
2022-09-10T06:29:52.791Z,61.03
2022-09-10T06:32:54.893Z,60.99
2022-09-10T06:35:58.121Z,61.04
2022-09-10T06:39:01.973Z,60.60
2022-09-10T06:42:06.023Z,60.78
2022-09-10T06:45:17.319Z,60.38
2022-09-10T06:48:39.131Z,59.97
2022-09-10T06:51:43.212Z,58.87
2022-09-10T06:54:45.862Z,58.41
2022-09-10T06:57:48.655Z,58.03
2022-09-10T07:00:52.116Z,58.21
2022-09-10T07:03:56.952Z,58.39
2022-09-10T07:07:00.824Z,58.03
2022-09-10T07:10:04.005Z,57.46
2022-09-10T07:13:06.903Z,57.31
2022-09-10T07:16:11.946Z,58.52
2022-09-10T07:19:15.120Z,57.76
2022-09-10T07:22:17.795Z,58.42
2022-09-10T07:25:21.844Z,58.56
2022-09-10T07:28:24.195Z,60.42
2022-09-10T07:31:29.747Z,60.73
2022-09-10T07:34:32.555Z,62.58
2022-09-10T07:37:36.160Z,62.95
2022-09-10T07:40:38.255Z,63.68
2022-09-10T07:43:44.217Z,63.91
2022-09-10T07:46:46.604Z,64.36
2022-09-10T07:49:49.649Z,64.03
2022-09-10T07:52:52.712Z,65.19
2022-09-10T07:56:04.492Z,65.82
2022-09-10T07:59:08.446Z,65.48
2022-09-10T08:02:15.495Z,66.08
2022-09-10T08:05:19.994Z,65.69
2022-09-10T08:08:22.225Z,65.53
2022-09-10T08:11:26.301Z,65.12
2022-09-10T08:14:29.992Z,64.48
2022-09-10T08:17:32.759Z,63.62
2022-09-10T08:20:34.846Z,62.30
2022-09-10T08:23:37.613Z,61.76
2022-09-10T08:26:40.162Z,60.91
2022-09-10T08:29:42.918Z,60.21
2022-09-10T08:32:45.301Z,57.90
2022-09-10T08:35:52.208Z,56.02
2022-09-10T08:38:59.868Z,55.61
2022-09-10T08:42:07.134Z,54.57
2022-09-10T08:45:15.840Z,53.81
2022-09-10T08:48:20.564Z,53.52
2022-09-10T08:51:27.543Z,53.36
2022-09-10T08:54:40.276Z,52.83
2022-09-10T08:57:47.143Z,52.71
2022-09-10T09:00:54.643Z,52.96
2022-09-10T09:04:00.823Z,53.00
2022-09-10T09:07:12.742Z,52.94
2022-09-10T09:10:35.231Z,51.88
2022-09-10T09:13:37.502Z,51.62
2022-09-10T09:16:45.938Z,50.90
2022-09-10T09:20:07.141Z,50.67
2022-09-10T09:23:17.632Z,51.13
2022-09-10T09:26:20.116Z,51.47
2022-09-10T09:29:26.874Z,51.40
2022-09-10T09:32:33.077Z,50.66
2022-09-10T09:35:41.382Z,50.62
2022-09-10T09:38:51.526Z,50.45
2022-09-10T09:42:07.785Z,50.34
2022-09-10T09:45:10.082Z,49.73
2022-09-10T09:48:13.567Z,49.45
2022-09-10T09:51:21.071Z,48.70
2022-09-10T09:57:48.469Z,48.36
2022-09-10T10:01:10.152Z,48.71
2022-09-10T10:04:26.756Z,48.36
2022-09-10T10:07:33.421Z,48.27
2022-09-10T10:10:35.780Z,48.17
2022-09-10T10:13:38.911Z,47.67
2022-09-10T10:16:41.289Z,47.46
2022-09-10T10:19:44.462Z,47.40
2022-09-10T10:22:48.687Z,46.43
2022-09-10T10:25:52.908Z,45.98
2022-09-10T10:29:00.062Z,45.55
2022-09-10T10:32:05.602Z,45.45
2022-09-10T10:35:27.371Z,44.45
2022-09-10T10:38:31.275Z,44.05
2022-09-10T10:41:33.648Z,43.31
2022-09-10T10:44:45.707Z,42.59
2022-09-10T10:47:54.249Z,42.26
2022-09-10T10:51:09.476Z,41.27
2022-09-10T10:54:27.469Z,37.54
2022-09-10T10:57:41.788Z,35.58
2022-09-10T11:00:46.821Z,35.11
2022-09-10T11:04:07.035Z,33.53
2022-09-10T11:07:20.811Z,33.09
2022-09-10T11:10:30.074Z,34.40
2022-09-10T11:13:44.785Z,32.84
2022-09-10T11:16:55.345Z,33.37
2022-09-10T11:20:27.875Z,33.35
2022-09-10T11:23:30.795Z,32.51
2022-09-10T11:26:39.297Z,31.10
2022-09-10T11:29:56.936Z,31.00
2022-09-10T11:33:05.739Z,30.38
2022-09-10T11:36:12.294Z,30.67
2022-09-10T11:39:19.461Z,30.25
2022-09-10T11:42:22.338Z,30.09
2022-09-10T11:45:32.290Z,29.17
2022-09-10T11:48:38.639Z,28.97
2022-09-10T11:51:41.727Z,28.87
2022-09-10T11:54:46.585Z,28.29
2022-09-10T11:58:05.796Z,29.41
2022-09-10T12:01:15.465Z,28.39
2022-09-10T12:04:31.019Z,28.44
2022-09-10T12:07:51.863Z,28.73
2022-09-10T12:10:56.914Z,28.33
2022-09-10T12:14:00.043Z,28.77
2022-09-10T12:17:07.091Z,29.10
2022-09-10T12:20:16.115Z,29.24
2022-09-10T12:23:29.877Z,29.77
2022-09-10T12:26:40.933Z,29.11
2022-09-10T12:29:45.807Z,28.78
2022-09-10T12:32:50.379Z,28.64
2022-09-10T12:35:52.696Z,28.39
2022-09-10T12:38:56.315Z,28.75
2022-09-10T12:42:02.859Z,28.14
2022-09-10T12:45:05.036Z,27.93
2022-09-10T12:48:12.216Z,28.19
2022-09-10T12:51:16.979Z,28.39
2022-09-10T12:54:38.041Z,28.58
2022-09-10T12:57:45.789Z,28.38
2022-09-10T13:00:54.101Z,27.63
2022-09-10T13:03:58.324Z,27.60
2022-09-10T13:07:20.077Z,27.93
2022-09-10T13:10:23.149Z,27.88
2022-09-10T13:13:35.324Z,27.86
2022-09-10T13:16:40.262Z,27.96
2022-09-10T13:19:43.071Z,27.90
2022-09-10T13:23:11.892Z,28.26
2022-09-10T13:26:33.741Z,28.50
2022-09-10T13:29:40.724Z,28.91
2022-09-10T13:32:48.550Z,29.09
2022-09-10T13:35:59.945Z,29.38
2022-09-10T13:39:19.246Z,29.91
2022-09-10T13:42:24.090Z,30.73
2022-09-10T13:45:29.416Z,31.36
2022-09-10T13:48:44.590Z,31.72
2022-09-10T13:51:54.525Z,31.49
2022-09-10T13:54:58.150Z,30.47
2022-09-10T13:58:04.919Z,30.67
2022-09-10T14:01:07.432Z,29.70
2022-09-10T14:04:26.205Z,30.11
2022-09-10T14:07:32.825Z,30.20
2022-09-10T14:10:38.683Z,30.19
2022-09-10T14:13:43.745Z,30.61
2022-09-10T14:16:49.598Z,30.06
2022-09-10T14:19:59.200Z,30.28
2022-09-10T14:23:03.464Z,30.00
2022-09-10T14:26:09.851Z,30.46
2022-09-10T14:29:38.297Z,30.27
2022-09-10T14:32:40.802Z,30.24
2022-09-10T14:35:48.575Z,31.15
2022-09-10T14:38:56.085Z,31.26
2022-09-10T14:42:22.918Z,31.21
2022-09-10T14:45:46.138Z,31.54
2022-09-10T14:49:01.389Z,31.69
2022-09-10T14:52:04.082Z,32.01
2022-09-10T14:55:06.422Z,32.01
2022-09-10T14:58:10.246Z,32.30
2022-09-10T15:01:12.536Z,32.67
2022-09-10T15:04:15.795Z,32.66
2022-09-10T15:07:18.225Z,32.40
2022-09-10T15:10:20.505Z,32.64
2022-09-10T15:13:22.934Z,32.79
2022-09-10T15:16:25.191Z,33.20
2022-09-10T15:19:27.918Z,33.41
2022-09-10T15:22:30.518Z,33.86
2022-09-10T15:25:43.091Z,34.23
2022-09-10T15:28:45.450Z,34.42
2022-09-10T15:31:47.783Z,34.62
2022-09-10T15:34:51.100Z,34.77
2022-09-10T15:37:53.438Z,35.30
2022-09-10T15:41:06.323Z,35.33
2022-09-10T15:44:08.642Z,35.65
2022-09-10T15:47:10.675Z,35.96
2022-09-10T15:50:14.322Z,36.05
2022-09-10T15:53:17.202Z,36.37
2022-09-10T15:56:22.571Z,36.42
2022-09-10T15:59:24.600Z,36.55
2022-09-10T16:02:27.221Z,36.83
2022-09-10T16:05:31.598Z,37.00
2022-09-10T16:08:33.995Z,36.79
2022-09-10T16:11:37.117Z,36.99
2022-09-10T16:14:39.915Z,36.89
2022-09-10T16:17:42.401Z,36.85
2022-09-10T16:20:44.412Z,36.95
2022-09-10T16:23:47.308Z,37.14
2022-09-10T16:26:49.418Z,37.38
2022-09-10T16:29:52.602Z,37.41
2022-09-10T16:32:55.489Z,37.59
2022-09-10T16:35:58.112Z,37.83
2022-09-10T16:39:03.336Z,38.13
2022-09-10T16:42:05.647Z,38.34
2022-09-10T16:45:07.948Z,38.54
2022-09-10T16:48:10.274Z,39.03
2022-09-10T16:51:16.596Z,39.41
2022-09-10T16:54:20.851Z,39.63
2022-09-10T16:57:22.979Z,40.38
2022-09-10T17:00:25.268Z,40.82
2022-09-10T17:03:31.393Z,40.97
2022-09-10T17:06:34.862Z,41.27
2022-09-10T17:09:36.875Z,41.34
2022-09-10T17:12:39.193Z,41.78
2022-09-10T17:15:43.086Z,42.08
2022-09-10T17:18:46.077Z,42.27
2022-09-10T17:21:51.147Z,42.20
2022-09-10T17:24:53.988Z,42.12
2022-09-10T17:27:56.005Z,42.00
2022-09-10T17:30:59.461Z,41.93
2022-09-10T17:34:01.498Z,41.99
2022-09-10T17:37:03.803Z,41.82
2022-09-10T17:40:07.169Z,41.96
2022-09-10T17:43:09.526Z,41.95
2022-09-10T17:46:17.735Z,41.82
2022-09-10T17:49:20.102Z,41.86
2022-09-10T17:52:22.258Z,42.06
2022-09-10T17:55:24.605Z,42.00
2022-09-10T17:58:27.687Z,41.99
2022-09-10T18:01:34.720Z,42.12
2022-09-10T18:04:37.071Z,42.30
2022-09-10T18:07:39.168Z,42.40
2022-09-10T18:10:41.474Z,42.72
2022-09-10T18:13:44.529Z,42.75
2022-09-10T18:16:47.297Z,43.11
2022-09-10T18:19:50.292Z,43.22
2022-09-10T18:22:52.536Z,43.38
2022-09-10T18:25:55.516Z,43.75
2022-09-10T18:28:59.495Z,43.98
2022-09-10T18:32:02.806Z,44.19
2022-09-10T18:35:06.239Z,44.48
2022-09-10T18:38:08.207Z,44.70
2022-09-10T18:41:36.777Z,44.96
2022-09-10T18:44:39.044Z,45.17
2022-09-10T18:47:44.922Z,45.45
2022-09-10T18:50:47.362Z,45.55
2022-09-10T18:53:52.747Z,45.63
2022-09-10T18:56:55.828Z,46.04
2022-09-10T18:59:58.087Z,46.15
2022-09-10T19:03:00.226Z,46.45
2022-09-10T19:06:04.396Z,46.82
2022-09-10T19:09:07.803Z,47.12
2022-09-10T19:12:12.540Z,47.19
2022-09-10T19:15:16.697Z,47.46
2022-09-10T19:18:19.092Z,47.69
2022-09-10T19:21:21.434Z,48.03
2022-09-10T19:24:37.785Z,48.17
2022-09-10T19:27:45.862Z,48.37
2022-09-10T19:30:49.637Z,48.47
2022-09-10T19:34:10.632Z,48.69
2022-09-10T19:37:13.168Z,49.06
2022-09-10T19:40:15.621Z,49.45
2022-09-10T19:43:18.008Z,49.69
2022-09-10T19:46:21.079Z,50.16
2022-09-10T19:49:23.609Z,50.30
2022-09-10T19:52:25.649Z,50.17
2022-09-10T19:55:27.972Z,50.69
2022-09-10T19:58:29.982Z,50.95
2022-09-10T20:01:33.214Z,51.19
2022-09-10T20:04:35.765Z,51.26
2022-09-10T20:07:37.992Z,51.48
2022-09-10T20:10:48.287Z,51.46
2022-09-10T20:13:54.228Z,51.72
2022-09-10T20:16:56.951Z,51.74
2022-09-10T20:19:59.011Z,51.76
2022-09-10T20:23:01.647Z,51.55
2022-09-10T20:26:10.190Z,51.70
2022-09-10T20:29:19.252Z,51.71
2022-09-10T20:32:21.304Z,51.83
2022-09-10T20:35:23.673Z,52.17
2022-09-10T20:38:26.157Z,52.24
2022-09-10T20:41:30.304Z,52.36
2022-09-10T20:44:32.713Z,52.51
2022-09-10T20:47:42.905Z,52.68
2022-09-10T20:50:51.661Z,52.80
2022-09-10T20:53:54.264Z,52.79
2022-09-10T20:56:56.624Z,52.91
2022-09-10T20:59:59.051Z,53.11
2022-09-10T21:03:03.196Z,53.34
2022-09-10T21:06:05.549Z,53.51
2022-09-10T21:09:07.647Z,53.70
2022-09-10T21:12:11.418Z,53.84
2022-09-10T21:15:13.501Z,54.04
2022-09-10T21:18:16.138Z,54.16
2022-09-10T21:21:20.149Z,54.28
2022-09-10T21:24:22.830Z,54.28
2022-09-10T21:27:24.934Z,54.32
2022-09-10T21:30:27.197Z,54.19
2022-09-10T21:33:29.846Z,54.28
2022-09-10T21:36:32.719Z,54.46
2022-09-10T21:39:34.753Z,54.45
2022-09-10T21:42:37.065Z,54.53
2022-09-10T21:45:39.056Z,54.56
2022-09-10T21:48:42.487Z,54.61
2022-09-10T21:51:45.180Z,54.62
2022-09-10T21:54:47.475Z,54.66
2022-09-10T21:57:49.475Z,54.69
2022-09-10T22:00:51.731Z,54.86
2022-09-10T22:03:56.206Z,54.74
2022-09-10T22:07:01.068Z,55.04
2022-09-10T22:10:05.890Z,55.23
2022-09-10T22:13:08.657Z,55.28
2022-09-10T22:16:12.558Z,55.45
2022-09-10T22:19:15.823Z,55.35
2022-09-10T22:22:18.104Z,55.77
2022-09-10T22:25:20.102Z,56.02
2022-09-10T22:28:22.690Z,56.28
2022-09-10T22:31:26.087Z,56.20
2022-09-10T22:34:28.739Z,56.52
2022-09-10T22:37:33.254Z,56.48
2022-09-10T22:40:35.519Z,56.72
2022-09-10T22:43:38.539Z,56.94
2022-09-10T22:46:41.319Z,57.05
2022-09-10T22:49:44.939Z,57.12
2022-09-10T22:52:47.203Z,57.16
2022-09-10T22:55:50.863Z,57.33
2022-09-10T22:58:54.539Z,57.34
2022-09-10T23:01:56.683Z,57.61
2022-09-10T23:04:59.892Z,57.78
2022-09-10T23:08:02.302Z,57.83
2022-09-10T23:11:08.963Z,57.76
2022-09-10T23:14:13.005Z,57.90
2022-09-10T23:17:18.432Z,57.88
2022-09-10T23:20:24.974Z,58.01
2022-09-10T23:23:27.575Z,57.89
2022-09-10T23:26:29.618Z,57.84
2022-09-10T23:29:32.032Z,57.90
2022-09-10T23:32:34.034Z,57.83
2022-09-10T23:35:36.296Z,57.70
2022-09-10T23:38:39.781Z,57.81
2022-09-10T23:41:42.448Z,57.88
2022-09-10T23:44:44.411Z,57.85
2022-09-10T23:47:46.709Z,57.83
2022-09-10T23:50:50.443Z,57.83
2022-09-10T23:53:54.679Z,57.91
2022-09-10T23:56:57.142Z,57.85
